createdAt,value
2022-12-03T00:01:03.765Z,8.05
2022-12-03T00:02:15.425Z,8.43
2022-12-03T00:03:27.663Z,8.50
2022-12-03T00:04:39.360Z,7.88
2022-12-03T00:05:50.891Z,7.55
2022-12-03T00:07:02.404Z,8.13
2022-12-03T00:08:14.061Z,8.13
2022-12-03T00:09:25.627Z,7.90
2022-12-03T00:10:37.146Z,8.45
2022-12-03T00:11:48.710Z,8.10
2022-12-03T00:13:00.259Z,7.22
2022-12-03T00:14:11.892Z,7.88
2022-12-03T00:15:23.405Z,8.52
2022-12-03T00:16:34.994Z,10.57
2022-12-03T00:17:46.529Z,8.13
2022-12-03T00:18:58.362Z,7.30
2022-12-03T00:20:16.757Z,7.82
2022-12-03T00:21:28.373Z,8.27
2022-12-03T00:22:39.867Z,7.00
2022-12-03T00:23:51.751Z,7.30
2022-12-03T00:25:03.320Z,7.60
2022-12-03T00:26:14.879Z,6.20
2022-12-03T00:27:26.363Z,6.70
2022-12-03T00:28:37.839Z,7.40
2022-12-03T00:29:49.408Z,7.80
2022-12-03T00:31:01.017Z,7.32
2022-12-03T00:32:14.064Z,7.25
2022-12-03T00:33:25.573Z,6.85
2022-12-03T00:34:37.062Z,8.15
2022-12-03T00:35:48.600Z,6.82
2022-12-03T00:37:00.071Z,7.47
2022-12-03T00:38:11.701Z,6.85
2022-12-03T00:39:23.172Z,7.18
2022-12-03T00:40:35.165Z,7.43
2022-12-03T00:41:46.744Z,7.10
2022-12-03T00:42:58.322Z,7.63
2022-12-03T00:44:10.441Z,7.72
2022-12-03T00:45:21.984Z,7.00
2022-12-03T00:46:33.660Z,8.20
2022-12-03T00:47:45.249Z,7.20
2022-12-03T00:48:56.723Z,7.03
2022-12-03T00:50:08.504Z,7.60
2022-12-03T00:51:20.086Z,7.43
2022-12-03T00:52:31.719Z,8.07
2022-12-03T00:53:43.244Z,6.60
2022-12-03T00:54:54.986Z,7.10
2022-12-03T00:56:07.021Z,7.18
2022-12-03T00:57:18.523Z,7.55
2022-12-03T00:58:30.062Z,7.68
2022-12-03T00:59:41.647Z,6.72
2022-12-03T01:00:53.178Z,7.07
2022-12-03T01:02:04.976Z,9.23
2022-12-03T01:03:16.639Z,8.55
2022-12-03T01:04:28.213Z,9.02
2022-12-03T01:05:39.849Z,9.20
2022-12-03T01:06:51.363Z,9.15
2022-12-03T01:08:02.948Z,9.07
2022-12-03T01:09:14.475Z,8.02
2022-12-03T01:10:26.109Z,6.80
2022-12-03T01:11:37.591Z,7.15
2022-12-03T01:12:49.164Z,7.25
2022-12-03T01:14:00.691Z,8.82
2022-12-03T01:15:12.580Z,9.18
2022-12-03T01:16:24.229Z,10.55
2022-12-03T01:17:36.134Z,10.15
2022-12-03T01:18:47.713Z,11.45
2022-12-03T01:19:59.291Z,11.05
2022-12-03T01:21:10.820Z,12.77
2022-12-03T01:22:22.286Z,11.65
2022-12-03T01:23:33.912Z,12.57
2022-12-03T01:24:45.509Z,13.02
2022-12-03T01:25:56.989Z,14.57
2022-12-03T01:27:08.503Z,15.88
2022-12-03T01:28:19.932Z,19.63
2022-12-03T01:29:31.459Z,15.75
2022-12-03T01:31:01.684Z,14.18
2022-12-03T01:32:22.223Z,13.63
2022-12-03T01:33:33.837Z,13.05
2022-12-03T01:34:52.689Z,12.07
2022-12-03T01:36:04.784Z,11.82
2022-12-03T01:37:16.557Z,10.55
2022-12-03T01:38:27.988Z,10.15
2022-12-03T01:39:39.627Z,8.35
2022-12-03T01:40:51.156Z,10.75
2022-12-03T01:42:03.142Z,10.20
2022-12-03T01:43:14.647Z,9.13
2022-12-03T01:44:28.132Z,10.02
2022-12-03T01:45:39.718Z,11.75
2022-12-03T01:46:52.229Z,16.58
2022-12-03T01:48:03.898Z,16.92
2022-12-03T01:49:18.740Z,14.98
2022-12-03T01:50:31.873Z,13.77
2022-12-03T01:51:43.442Z,13.07
2022-12-03T01:52:55.990Z,12.05
2022-12-03T01:54:10.031Z,11.82
2022-12-03T01:55:24.459Z,11.50
2022-12-03T01:56:36.031Z,10.50
2022-12-03T01:57:48.522Z,11.05
2022-12-03T01:59:00.005Z,11.32
2022-12-03T02:00:16.475Z,11.50
2022-12-03T02:01:28.032Z,11.35
2022-12-03T02:02:39.553Z,10.63
2022-12-03T02:03:51.131Z,13.65
2022-12-03T02:05:04.375Z,12.25
2022-12-03T02:06:20.455Z,8.70
2022-12-03T02:07:33.202Z,7.50
2022-12-03T02:08:44.777Z,7.65
2022-12-03T02:09:57.902Z,5.28
2022-12-03T02:11:29.656Z,6.50
2022-12-03T02:12:43.948Z,5.68
2022-12-03T02:13:56.529Z,6.22
2022-12-03T02:15:09.159Z,5.95
2022-12-03T02:16:20.912Z,7.15
2022-12-03T02:17:32.726Z,6.07
2022-12-03T02:18:44.245Z,6.75
2022-12-03T02:19:56.030Z,6.70
2022-12-03T02:21:07.714Z,6.68
2022-12-03T02:22:19.113Z,8.13
2022-12-03T02:23:41.834Z,9.80
2022-12-03T02:24:59.577Z,7.93
2022-12-03T02:26:11.134Z,7.20
2022-12-03T02:27:23.116Z,6.70
2022-12-03T02:28:34.790Z,6.13
2022-12-03T02:29:46.375Z,5.90
2022-12-03T02:30:57.943Z,5.65
2022-12-03T02:32:09.485Z,5.78
2022-12-03T02:33:21.037Z,5.15
2022-12-03T02:34:34.445Z,5.43
2022-12-03T02:35:45.929Z,5.20
2022-12-03T02:36:57.589Z,5.40
2022-12-03T02:38:35.179Z,5.72
2022-12-03T02:39:49.418Z,5.65
2022-12-03T02:41:03.760Z,4.85
2022-12-03T02:42:33.864Z,6.20
2022-12-03T02:43:45.502Z,5.82
2022-12-03T02:45:02.145Z,5.43
2022-12-03T02:46:16.532Z,5.72
2022-12-03T02:47:28.377Z,5.28
2022-12-03T02:48:40.712Z,7.00
2022-12-03T02:49:52.486Z,6.82
2022-12-03T02:51:05.610Z,6.07
2022-12-03T02:52:17.101Z,7.03
2022-12-03T02:53:31.127Z,6.50
2022-12-03T02:54:42.757Z,5.32
2022-12-03T02:55:55.418Z,7.00
2022-12-03T02:57:06.937Z,7.55
2022-12-03T02:58:19.349Z,6.82
2022-12-03T02:59:30.913Z,6.80
2022-12-03T03:00:43.469Z,6.32
2022-12-03T03:01:55.315Z,12.68
2022-12-03T03:03:07.730Z,11.48
2022-12-03T03:04:19.312Z,11.68
2022-12-03T03:05:31.170Z,9.70
2022-12-03T03:06:42.853Z,10.98
2022-12-03T03:07:54.447Z,7.40
2022-12-03T03:09:06.215Z,7.90
2022-12-03T03:10:23.155Z,7.40
2022-12-03T03:11:34.637Z,6.50
2022-12-03T03:12:46.171Z,6.80
2022-12-03T03:13:57.803Z,8.05
2022-12-03T03:15:09.912Z,7.50
2022-12-03T03:16:21.603Z,7.82
2022-12-03T03:17:33.092Z,7.80
2022-12-03T03:18:44.678Z,8.00
2022-12-03T03:19:56.255Z,7.97
2022-12-03T03:21:08.145Z,7.20
2022-12-03T03:22:19.655Z,7.53
2022-12-03T03:23:31.224Z,7.45
2022-12-03T03:24:42.775Z,7.18
2022-12-03T03:25:57.458Z,7.32
2022-12-03T03:27:09.053Z,8.30
2022-12-03T03:28:20.579Z,6.72
2022-12-03T03:29:32.700Z,6.97
2022-12-03T03:30:44.495Z,6.68
2022-12-03T03:31:55.977Z,6.80
2022-12-03T03:33:08.430Z,7.32
2022-12-03T03:34:20.104Z,7.75
2022-12-03T03:35:31.738Z,8.63
2022-12-03T03:36:43.684Z,8.50
2022-12-03T03:37:56.272Z,8.25
2022-12-03T03:39:07.856Z,7.82
2022-12-03T03:40:20.248Z,8.70
2022-12-03T03:41:32.843Z,7.60
2022-12-03T03:42:44.376Z,7.60
2022-12-03T03:43:56.315Z,8.00
2022-12-03T03:45:08.353Z,8.38
2022-12-03T03:46:20.289Z,9.40
2022-12-03T03:47:32.206Z,8.98
2022-12-03T03:48:43.904Z,8.35
2022-12-03T03:49:55.702Z,8.00
2022-12-03T03:51:09.745Z,9.50
2022-12-03T03:52:21.358Z,10.85
2022-12-03T03:53:32.935Z,10.18
2022-12-03T03:54:44.653Z,12.27
2022-12-03T03:55:56.310Z,7.90
2022-12-03T03:57:07.898Z,8.77
2022-12-03T03:58:19.460Z,7.93
2022-12-03T03:59:31.079Z,8.30
2022-12-03T04:00:47.409Z,7.32
2022-12-03T04:01:59.000Z,7.88
2022-12-03T04:03:11.204Z,7.63
2022-12-03T04:04:24.066Z,7.32
2022-12-03T04:05:35.580Z,7.90
2022-12-03T04:06:47.772Z,7.63
2022-12-03T04:07:59.477Z,7.55
2022-12-03T04:09:11.134Z,6.95
2022-12-03T04:10:41.355Z,7.43
2022-12-03T04:12:11.461Z,7.00
2022-12-03T04:13:23.046Z,6.63
2022-12-03T04:14:34.618Z,6.82
2022-12-03T04:15:46.133Z,7.50
2022-12-03T04:16:57.695Z,8.45
2022-12-03T04:18:27.483Z,7.80
2022-12-03T04:19:38.952Z,8.65
2022-12-03T04:20:50.433Z,9.18
2022-12-03T04:22:20.378Z,9.73
2022-12-03T04:23:31.959Z,9.65
2022-12-03T04:24:43.623Z,9.00
2022-12-03T04:26:13.614Z,9.05
2022-12-03T04:27:43.442Z,7.57
2022-12-03T04:28:54.929Z,8.23
2022-12-03T04:30:06.685Z,7.53
2022-12-03T04:31:47.146Z,6.65
2022-12-03T04:33:17.326Z,8.30
2022-12-03T04:34:47.660Z,7.75
2022-12-03T04:35:59.257Z,7.13
2022-12-03T04:37:10.814Z,7.05
2022-12-03T04:38:22.339Z,7.25
2022-12-03T04:39:33.818Z,7.22
2022-12-03T04:41:03.832Z,7.03
2022-12-03T04:42:15.357Z,7.25
2022-12-03T04:43:31.367Z,5.90
2022-12-03T04:44:43.033Z,6.68
2022-12-03T04:45:54.622Z,6.80
2022-12-03T04:47:07.859Z,6.03
2022-12-03T04:48:19.326Z,6.80
2022-12-03T04:49:31.077Z,7.22
2022-12-03T04:50:42.758Z,7.53
2022-12-03T04:51:54.261Z,6.65
2022-12-03T04:53:05.729Z,7.15
2022-12-03T04:54:17.282Z,6.22
2022-12-03T04:55:28.812Z,6.40
2022-12-03T04:56:40.351Z,5.70
2022-12-03T04:57:51.913Z,5.90
2022-12-03T04:59:03.574Z,6.85
2022-12-03T05:00:15.381Z,6.32
2022-12-03T05:01:26.966Z,8.00
2022-12-03T05:02:38.522Z,8.35
2022-12-03T05:03:50.063Z,7.53
2022-12-03T05:05:01.593Z,7.93
2022-12-03T05:06:13.111Z,7.50
2022-12-03T05:07:24.589Z,6.38
2022-12-03T05:08:36.118Z,6.43
2022-12-03T05:09:47.704Z,6.55
2022-12-03T05:10:59.282Z,6.13
2022-12-03T05:12:10.752Z,6.57
2022-12-03T05:13:22.285Z,8.18
2022-12-03T05:14:33.807Z,11.70
2022-12-03T05:15:45.299Z,10.10
2022-12-03T05:16:56.961Z,10.45
2022-12-03T05:18:08.492Z,10.30
2022-12-03T05:19:19.970Z,10.70
2022-12-03T05:20:49.651Z,10.85
2022-12-03T05:22:04.384Z,11.25
2022-12-03T05:23:16.170Z,10.45
2022-12-03T05:24:27.639Z,9.52
2022-12-03T05:25:39.468Z,9.82
2022-12-03T05:26:51.049Z,9.73
2022-12-03T05:28:02.678Z,11.15
2022-12-03T05:29:14.251Z,10.35
2022-12-03T05:30:25.995Z,11.85
2022-12-03T05:31:37.650Z,10.80
2022-12-03T05:32:49.222Z,15.88
2022-12-03T05:34:00.779Z,15.65
2022-12-03T05:35:12.352Z,28.15
2022-12-03T05:36:25.472Z,26.40
2022-12-03T05:37:37.039Z,24.35
2022-12-03T05:38:48.718Z,17.60
2022-12-03T05:40:00.295Z,17.83
2022-12-03T05:41:30.660Z,16.67
2022-12-03T05:42:54.076Z,13.38
2022-12-03T05:44:05.758Z,15.57
2022-12-03T05:45:18.614Z,17.25
2022-12-03T05:46:30.256Z,20.25
2022-12-03T05:47:41.828Z,18.55
2022-12-03T05:48:53.351Z,18.45
2022-12-03T05:50:05.130Z,19.00
2022-12-03T05:51:16.714Z,17.73
2022-12-03T05:52:28.242Z,17.40
2022-12-03T05:53:39.748Z,14.77
2022-12-03T05:54:51.334Z,13.18
2022-12-03T05:56:03.019Z,10.43
2022-12-03T05:57:14.453Z,10.65
2022-12-03T05:58:25.962Z,11.48
2022-12-03T05:59:37.537Z,10.35
2022-12-03T06:00:48.968Z,11.75
2022-12-03T06:02:00.625Z,10.43
2022-12-03T06:03:12.247Z,11.15
2022-12-03T06:04:23.812Z,11.27
2022-12-03T06:05:35.400Z,10.18
2022-12-03T06:06:46.869Z,9.85
2022-12-03T06:07:58.490Z,13.13
2022-12-03T06:09:10.132Z,10.68
2022-12-03T06:10:23.038Z,13.88
2022-12-03T06:11:35.237Z,12.52
2022-12-03T06:12:46.820Z,12.50
2022-12-03T06:13:58.285Z,13.10
2022-12-03T06:15:10.272Z,11.35
2022-12-03T06:16:22.162Z,13.15
2022-12-03T06:17:33.683Z,12.40
2022-12-03T06:18:45.224Z,12.25
2022-12-03T06:19:56.784Z,10.85
2022-12-03T06:21:08.283Z,12.27
2022-12-03T06:22:20.049Z,25.98
2022-12-03T06:23:31.588Z,19.08
2022-12-03T06:24:43.155Z,22.25
2022-12-03T06:25:54.684Z,19.20
2022-12-03T06:27:06.188Z,16.70
2022-12-03T06:28:17.737Z,18.35
2022-12-03T06:29:29.213Z,16.98
2022-12-03T06:30:40.796Z,16.95
2022-12-03T06:31:52.714Z,15.48
2022-12-03T06:33:04.363Z,14.13
2022-12-03T06:34:15.941Z,16.15
2022-12-03T06:35:27.459Z,17.65
2022-12-03T06:36:38.929Z,16.67
2022-12-03T06:37:50.421Z,31.77
2022-12-03T06:39:02.056Z,27.92
2022-12-03T06:40:13.756Z,28.95
2022-12-03T06:41:25.238Z,24.35
2022-12-03T06:42:36.890Z,22.52
2022-12-03T06:43:48.460Z,23.85
2022-12-03T06:45:00.061Z,24.75
2022-12-03T06:46:11.664Z,25.80
2022-12-03T06:47:23.217Z,25.52
2022-12-03T06:48:34.772Z,24.38
2022-12-03T06:49:46.281Z,27.27
2022-12-03T06:50:57.730Z,27.05
2022-12-03T06:52:09.315Z,26.02
2022-12-03T06:53:20.814Z,28.70
2022-12-03T06:54:32.361Z,28.17
2022-12-03T06:55:43.976Z,27.35
2022-12-03T06:56:55.519Z,32.65
2022-12-03T06:58:07.100Z,36.53
2022-12-03T06:59:18.620Z,39.33
2022-12-03T07:00:30.219Z,40.90
2022-12-03T07:01:41.926Z,39.53
2022-12-03T07:02:53.622Z,32.72
2022-12-03T07:04:05.329Z,30.67
2022-12-03T07:05:17.246Z,30.60
2022-12-03T07:06:28.787Z,31.75
2022-12-03T07:07:40.491Z,28.17
2022-12-03T07:08:52.121Z,25.95
2022-12-03T07:10:04.630Z,25.98
2022-12-03T07:11:40.144Z,22.60
2022-12-03T07:12:51.665Z,22.80
2022-12-03T07:14:05.609Z,19.50
2022-12-03T07:15:17.564Z,18.95
2022-12-03T07:16:29.178Z,19.60
2022-12-03T07:17:41.886Z,21.17
2022-12-03T07:18:53.682Z,30.52
2022-12-03T07:20:06.134Z,24.58
2022-12-03T07:21:17.733Z,22.10
2022-12-03T07:22:29.204Z,22.10
2022-12-03T07:23:40.807Z,17.88
2022-12-03T07:24:52.819Z,16.30
2022-12-03T07:26:04.669Z,16.38
2022-12-03T07:27:16.155Z,14.27
2022-12-03T07:28:27.692Z,14.82
2022-12-03T07:29:39.270Z,11.77
2022-12-03T07:30:50.850Z,14.35
2022-12-03T07:32:02.429Z,16.23
2022-12-03T07:33:14.103Z,45.95
2022-12-03T07:34:25.790Z,26.83
2022-12-03T07:35:37.258Z,26.15
2022-12-03T07:36:48.733Z,16.55
2022-12-03T07:38:00.420Z,15.52
2022-12-03T07:39:13.139Z,19.15
2022-12-03T07:40:24.698Z,30.75
2022-12-03T07:41:36.332Z,39.38
2022-12-03T07:42:47.914Z,38.25
2022-12-03T07:43:59.692Z,21.45
2022-12-03T07:45:11.529Z,22.83
2022-12-03T07:46:23.273Z,47.88
2022-12-03T07:47:34.897Z,54.95
2022-12-03T07:48:46.471Z,52.10
2022-12-03T07:49:58.396Z,53.50
2022-12-03T07:51:14.191Z,44.75
2022-12-03T07:52:26.927Z,56.03
2022-12-03T07:53:38.673Z,42.70
2022-12-03T07:54:50.302Z,32.15
2022-12-03T07:56:03.265Z,25.35
2022-12-03T07:57:14.822Z,23.13
2022-12-03T07:58:26.359Z,21.98
2022-12-03T07:59:37.942Z,19.88
2022-12-03T08:00:49.821Z,18.08
2022-12-03T08:02:02.723Z,20.35
2022-12-03T08:03:14.450Z,17.35
2022-12-03T08:04:25.924Z,17.13
2022-12-03T08:05:37.520Z,15.32
2022-12-03T08:06:49.055Z,23.33
2022-12-03T08:08:01.366Z,17.02
2022-12-03T08:09:16.043Z,16.25
2022-12-03T08:10:28.196Z,23.92
2022-12-03T08:11:39.770Z,16.13
2022-12-03T08:12:51.446Z,15.50
2022-12-03T08:14:08.350Z,13.93
2022-12-03T08:15:21.089Z,14.27
2022-12-03T08:16:39.773Z,14.18
2022-12-03T08:18:01.009Z,15.15
2022-12-03T08:19:14.053Z,19.35
2022-12-03T08:20:27.038Z,29.52
2022-12-03T08:21:38.921Z,28.88
2022-12-03T08:22:51.615Z,22.98
2022-12-03T08:24:23.469Z,18.73
2022-12-03T08:25:34.970Z,16.65
2022-12-03T08:26:47.471Z,17.58
2022-12-03T08:28:22.242Z,23.00
2022-12-03T08:29:33.790Z,21.40
2022-12-03T08:30:47.203Z,19.45
2022-12-03T08:31:58.825Z,17.05
2022-12-03T08:33:31.233Z,20.30
2022-12-03T08:34:44.068Z,23.65
2022-12-03T08:35:55.674Z,30.48
2022-12-03T08:37:11.212Z,25.60
2022-12-03T08:38:24.181Z,23.00
2022-12-03T08:39:41.291Z,23.15
2022-12-03T08:40:55.476Z,20.48
2022-12-03T08:42:30.975Z,18.65
2022-12-03T08:43:43.970Z,18.02
2022-12-03T08:44:56.187Z,13.05
2022-12-03T08:46:11.261Z,13.80
2022-12-03T08:47:23.583Z,12.40
2022-12-03T08:48:37.217Z,13.38
2022-12-03T08:49:58.251Z,13.13
2022-12-03T08:51:15.572Z,13.25
2022-12-03T08:52:31.035Z,11.88
2022-12-03T08:53:59.702Z,13.18
2022-12-03T08:55:31.471Z,11.43
2022-12-03T08:56:43.982Z,11.00
2022-12-03T08:57:55.550Z,12.15
2022-12-03T08:59:27.830Z,12.65
2022-12-03T09:00:39.466Z,12.90
2022-12-03T09:01:51.748Z,12.93
2022-12-03T09:03:03.371Z,12.40
2022-12-03T09:04:16.649Z,14.45
2022-12-03T09:05:34.923Z,16.83
2022-12-03T09:06:46.552Z,16.50
2022-12-03T09:07:58.165Z,14.07
2022-12-03T09:09:10.294Z,13.48
2022-12-03T09:10:21.861Z,15.75
2022-12-03T09:11:33.688Z,17.42
2022-12-03T09:12:45.224Z,16.02
2022-12-03T09:13:56.733Z,18.13
2022-12-03T09:15:08.362Z,17.95
2022-12-03T09:16:19.970Z,19.27
2022-12-03T09:17:31.732Z,19.08
2022-12-03T09:18:43.233Z,19.17
2022-12-03T09:19:54.981Z,20.52
2022-12-03T09:21:06.698Z,18.35
2022-12-03T09:22:18.549Z,16.20
2022-12-03T09:23:30.125Z,13.68
2022-12-03T09:24:41.601Z,17.55
2022-12-03T09:25:53.301Z,14.52
2022-12-03T09:27:04.867Z,12.73
2022-12-03T09:28:16.432Z,12.48
2022-12-03T09:29:27.970Z,14.45
2022-12-03T09:30:39.603Z,16.27
2022-12-03T09:31:51.365Z,14.50
2022-12-03T09:33:03.032Z,9.98
2022-12-03T09:34:14.747Z,9.15
2022-12-03T09:35:27.101Z,9.82
2022-12-03T09:36:38.645Z,9.93
2022-12-03T09:37:50.295Z,7.80
2022-12-03T09:39:01.886Z,9.43
2022-12-03T09:40:14.080Z,9.02
2022-12-03T09:41:26.265Z,8.85
2022-12-03T09:42:38.196Z,13.85
2022-12-03T09:44:04.071Z,19.73
2022-12-03T09:45:16.876Z,18.05
2022-12-03T09:46:29.121Z,22.65
2022-12-03T09:47:42.482Z,23.10
2022-12-03T09:48:55.711Z,23.15
2022-12-03T09:50:07.813Z,21.88
2022-12-03T09:51:19.475Z,22.05
2022-12-03T09:52:34.065Z,17.50
2022-12-03T09:53:46.372Z,12.02
2022-12-03T09:54:58.867Z,13.05
2022-12-03T09:56:19.478Z,13.73
2022-12-03T09:57:31.453Z,12.48
2022-12-03T09:58:43.203Z,11.63
2022-12-03T09:59:55.453Z,11.50
2022-12-03T10:01:11.207Z,12.73
2022-12-03T10:02:26.849Z,11.65
2022-12-03T10:03:39.813Z,18.17
2022-12-03T10:04:53.108Z,22.83
2022-12-03T10:06:05.041Z,21.88
2022-12-03T10:07:16.829Z,13.98
2022-12-03T10:08:32.164Z,13.05
2022-12-03T10:09:44.134Z,11.35
2022-12-03T10:10:56.824Z,12.95
2022-12-03T10:12:11.052Z,13.25
2022-12-03T10:13:25.996Z,12.80
2022-12-03T10:14:37.868Z,14.18
2022-12-03T10:15:49.377Z,13.85
2022-12-03T10:17:00.974Z,13.38
2022-12-03T10:18:24.532Z,14.13
2022-12-03T10:19:37.642Z,12.57
2022-12-03T10:20:50.009Z,16.90
2022-12-03T10:22:01.968Z,16.85
2022-12-03T10:23:39.558Z,14.30
2022-12-03T10:25:06.293Z,15.23
2022-12-03T10:26:17.974Z,13.75
2022-12-03T10:27:30.678Z,12.27
2022-12-03T10:28:43.694Z,14.35
2022-12-03T10:29:56.416Z,16.05
2022-12-03T10:31:09.301Z,16.40
2022-12-03T10:32:24.728Z,20.73
2022-12-03T10:33:40.985Z,10.73
2022-12-03T10:35:05.748Z,11.25
2022-12-03T10:36:21.787Z,9.60
2022-12-03T10:37:33.345Z,8.80
2022-12-03T10:38:45.022Z,10.50
2022-12-03T10:39:56.794Z,13.10
2022-12-03T10:41:41.063Z,9.60
2022-12-03T10:42:52.727Z,14.13
2022-12-03T10:44:16.481Z,9.93
2022-12-03T10:45:28.044Z,9.98
2022-12-03T10:46:39.741Z,9.02
2022-12-03T10:48:11.776Z,9.20
2022-12-03T10:49:23.463Z,9.65
2022-12-03T10:50:35.597Z,9.75
2022-12-03T10:51:48.005Z,8.73
2022-12-03T10:52:59.635Z,8.10
2022-12-03T10:54:19.502Z,8.13
2022-12-03T10:55:34.354Z,8.63
2022-12-03T10:56:46.961Z,9.32
2022-12-03T10:57:58.535Z,8.27
2022-12-03T10:59:17.739Z,8.45
2022-12-03T11:00:29.205Z,8.07
2022-12-03T11:01:40.909Z,8.52
2022-12-03T11:02:56.818Z,8.50
2022-12-03T11:04:15.218Z,7.90
2022-12-03T11:05:27.548Z,8.13
2022-12-03T11:06:39.248Z,8.38
2022-12-03T11:07:50.819Z,8.80
2022-12-03T11:09:08.749Z,6.85
2022-12-03T11:10:21.048Z,6.70
2022-12-03T11:11:32.681Z,6.28
2022-12-03T11:13:04.126Z,7.22
2022-12-03T11:14:35.617Z,6.60
2022-12-03T11:15:47.999Z,5.97
2022-12-03T11:16:59.523Z,5.00
2022-12-03T11:18:11.076Z,6.25
2022-12-03T11:19:41.347Z,6.55
2022-12-03T11:21:09.963Z,4.85
2022-12-03T11:22:24.750Z,6.78
2022-12-03T11:23:45.738Z,6.65
2022-12-03T11:25:16.052Z,5.70
2022-12-03T11:26:30.380Z,5.57
2022-12-03T11:27:45.066Z,5.68
2022-12-03T11:28:57.631Z,5.68
2022-12-03T11:30:10.547Z,8.18
2022-12-03T11:31:40.757Z,8.32
2022-12-03T11:32:55.138Z,7.25
2022-12-03T11:34:18.875Z,6.18
2022-12-03T11:35:39.862Z,5.57
2022-12-03T11:37:20.837Z,6.53
2022-12-03T11:38:38.344Z,4.97
2022-12-03T11:39:50.149Z,5.10
2022-12-03T11:41:20.862Z,5.30
2022-12-03T11:42:39.347Z,5.45
2022-12-03T11:43:56.107Z,4.30
2022-12-03T11:45:10.653Z,4.78
2022-12-03T11:46:23.427Z,6.30
2022-12-03T11:47:44.858Z,5.40
2022-12-03T11:48:57.961Z,5.97
2022-12-03T11:50:21.939Z,5.55
2022-12-03T11:51:33.538Z,6.47
2022-12-03T11:52:46.688Z,7.32
2022-12-03T11:53:59.666Z,6.65
2022-12-03T11:55:17.179Z,6.10
2022-12-03T11:56:29.702Z,6.20
2022-12-03T11:57:43.521Z,4.78
2022-12-03T11:58:59.314Z,6.05
2022-12-03T12:00:14.451Z,5.50
2022-12-03T12:01:38.835Z,5.60
2022-12-03T12:02:52.030Z,6.57
2022-12-03T12:04:04.401Z,6.85
2022-12-03T12:05:17.862Z,5.43
2022-12-03T12:06:39.464Z,5.20
2022-12-03T12:07:51.914Z,7.22
2022-12-03T12:09:04.210Z,6.55
2022-12-03T12:10:34.306Z,8.00
2022-12-03T12:11:45.847Z,8.00
2022-12-03T12:12:57.533Z,12.30
2022-12-03T12:14:09.133Z,19.40
2022-12-03T12:15:35.134Z,16.98
2022-12-03T12:16:51.119Z,8.80
2022-12-03T12:18:21.973Z,9.95
2022-12-03T12:19:33.522Z,11.15
2022-12-03T12:20:45.100Z,10.57
2022-12-03T12:22:12.045Z,11.02
2022-12-03T12:23:28.638Z,10.02
2022-12-03T12:24:51.803Z,6.05
2022-12-03T12:26:07.376Z,7.28
2022-12-03T12:27:38.198Z,6.85
2022-12-03T12:29:34.199Z,6.85
2022-12-03T12:30:45.822Z,6.65
2022-12-03T12:32:17.217Z,6.40
2022-12-03T12:33:28.806Z,6.05
2022-12-03T12:34:41.551Z,7.10
2022-12-03T12:35:53.726Z,7.45
2022-12-03T12:37:10.118Z,7.43
2022-12-03T12:38:22.718Z,6.93
2022-12-03T12:39:36.010Z,5.93
2022-12-03T12:40:49.458Z,6.50
2022-12-03T12:42:01.155Z,6.30
2022-12-03T12:43:39.742Z,5.53
2022-12-03T12:44:51.915Z,4.80
2022-12-03T12:46:39.080Z,43.35
2022-12-03T12:47:46.506Z,25.02
2022-12-03T12:48:59.947Z,21.90
2022-12-03T12:50:12.241Z,17.02
2022-12-03T12:51:24.023Z,11.73
2022-12-03T12:52:35.588Z,6.47
2022-12-03T12:53:48.777Z,7.32
2022-12-03T12:55:04.875Z,6.05
2022-12-03T12:56:27.123Z,6.07
2022-12-03T12:57:38.884Z,6.22
2022-12-03T12:58:50.511Z,5.60
2022-12-03T13:00:02.877Z,5.65
2022-12-03T13:01:22.018Z,5.47
2022-12-03T13:02:38.630Z,6.40
2022-12-03T13:03:51.743Z,7.07
2022-12-03T13:05:04.042Z,7.53
2022-12-03T13:06:16.228Z,7.53
2022-12-03T13:07:27.986Z,8.68
2022-12-03T13:08:42.702Z,10.77
2022-12-03T13:09:56.867Z,11.10
2022-12-03T13:11:21.086Z,9.85
2022-12-03T13:13:03.843Z,7.07
2022-12-03T13:14:15.360Z,6.75
2022-12-03T13:15:53.042Z,5.40
2022-12-03T13:17:12.929Z,6.15
2022-12-03T13:18:36.825Z,9.85
2022-12-03T13:19:53.890Z,6.32
2022-12-03T13:21:14.345Z,5.65
2022-12-03T13:22:25.956Z,5.90
2022-12-03T13:23:37.657Z,7.10
2022-12-03T13:24:54.547Z,5.70
2022-12-03T13:26:30.454Z,9.48
2022-12-03T13:27:47.351Z,9.15
2022-12-03T13:28:59.803Z,7.68
2022-12-03T13:30:16.347Z,9.10
2022-12-03T13:31:29.864Z,9.07
2022-12-03T13:32:41.807Z,8.88
2022-12-03T13:33:54.524Z,5.95
2022-12-03T13:35:07.525Z,3.63
2022-12-03T13:36:20.249Z,4.28
2022-12-03T13:37:31.842Z,5.05
2022-12-03T13:38:44.648Z,4.63
2022-12-03T13:39:57.104Z,5.97
2022-12-03T13:41:32.647Z,6.68
2022-12-03T13:42:46.579Z,6.70
2022-12-03T13:43:58.775Z,6.43
2022-12-03T13:45:16.313Z,6.85
2022-12-03T13:46:32.611Z,5.85
2022-12-03T13:47:45.395Z,9.35
2022-12-03T13:49:00.400Z,11.00
2022-12-03T13:50:36.609Z,8.32
2022-12-03T13:51:48.750Z,6.25
2022-12-03T13:53:01.705Z,7.00
2022-12-03T13:54:23.322Z,6.45
2022-12-03T13:55:35.211Z,6.05
2022-12-03T13:56:47.535Z,6.45
2022-12-03T13:57:59.090Z,7.80
2022-12-03T13:59:10.762Z,7.47
2022-12-03T14:00:22.339Z,9.55
2022-12-03T14:01:34.655Z,7.40
2022-12-03T14:02:46.308Z,8.02
2022-12-03T14:03:57.944Z,7.97
2022-12-03T14:05:10.620Z,7.60
2022-12-03T14:06:22.181Z,6.80
2022-12-03T14:07:33.916Z,7.43
2022-12-03T14:08:45.670Z,8.73
2022-12-03T14:09:57.483Z,8.82
2022-12-03T14:11:09.317Z,7.88
2022-12-03T14:12:27.188Z,8.05
2022-12-03T14:13:38.769Z,6.90
2022-12-03T14:14:50.216Z,7.13
2022-12-03T14:16:02.023Z,7.57
2022-12-03T14:17:14.146Z,8.18
2022-12-03T14:18:25.913Z,9.05
2022-12-03T14:19:37.552Z,8.27
2022-12-03T14:20:49.252Z,8.77
2022-12-03T14:22:01.150Z,8.40
2022-12-03T14:23:13.315Z,8.07
2022-12-03T14:24:24.992Z,8.85
2022-12-03T14:25:36.746Z,8.07
2022-12-03T14:26:48.739Z,7.90
2022-12-03T14:28:01.247Z,7.20
2022-12-03T14:29:13.123Z,6.38
2022-12-03T14:30:25.439Z,7.53
2022-12-03T14:31:37.211Z,7.72
2022-12-03T14:32:48.984Z,9.52
2022-12-03T14:34:00.558Z,9.48
2022-12-03T14:35:12.161Z,11.45
2022-12-03T14:36:23.947Z,12.13
2022-12-03T14:37:35.842Z,12.65
2022-12-03T14:38:47.645Z,12.15
2022-12-03T14:40:00.100Z,11.38
2022-12-03T14:41:32.107Z,9.18
2022-12-03T14:42:43.929Z,8.85
2022-12-03T14:43:55.667Z,11.85
2022-12-03T14:45:07.952Z,12.00
2022-12-03T14:46:19.904Z,12.82
2022-12-03T14:47:31.889Z,14.98
2022-12-03T14:48:43.815Z,13.00
2022-12-03T14:49:56.262Z,10.45
2022-12-03T14:51:08.631Z,6.57
2022-12-03T14:52:20.345Z,6.03
2022-12-03T14:53:31.989Z,5.13
2022-12-03T14:54:44.055Z,4.93
2022-12-03T14:55:56.024Z,4.68
2022-12-03T14:57:08.235Z,4.10
2022-12-03T14:58:20.345Z,4.35
2022-12-03T14:59:32.223Z,3.80
2022-12-03T15:00:44.359Z,4.38
2022-12-03T15:01:56.424Z,3.88
2022-12-03T15:03:08.813Z,4.55
2022-12-03T15:04:20.548Z,4.95
2022-12-03T15:05:32.322Z,4.93
2022-12-03T15:06:44.202Z,5.50
2022-12-03T15:07:56.499Z,5.15
2022-12-03T15:09:09.056Z,5.70
2022-12-03T15:10:20.686Z,5.47
2022-12-03T15:11:32.422Z,4.60
2022-12-03T15:12:44.071Z,4.97
2022-12-03T15:13:55.775Z,4.60
2022-12-03T15:15:07.526Z,4.65
2022-12-03T15:16:19.674Z,4.38
2022-12-03T15:17:32.383Z,4.00
2022-12-03T15:18:44.134Z,6.53
2022-12-03T15:19:56.026Z,5.10
2022-12-03T15:21:07.850Z,6.85
2022-12-03T15:22:19.437Z,7.13
2022-12-03T15:23:31.007Z,6.78
2022-12-03T15:24:42.506Z,7.88
2022-12-03T15:25:53.989Z,7.10
2022-12-03T15:27:05.943Z,7.68
2022-12-03T15:28:17.636Z,7.28
2022-12-03T15:29:29.263Z,6.63
2022-12-03T15:30:40.814Z,6.15
2022-12-03T15:31:52.891Z,6.43
2022-12-03T15:33:05.158Z,5.63
2022-12-03T15:34:22.246Z,5.75
2022-12-03T15:35:34.809Z,5.32
2022-12-03T15:36:46.290Z,4.95
2022-12-03T15:37:57.941Z,4.55
2022-12-03T15:39:09.620Z,4.25
2022-12-03T15:40:21.319Z,4.28
2022-12-03T15:41:32.866Z,4.28
2022-12-03T15:42:44.463Z,4.22
2022-12-03T15:43:57.211Z,4.45
2022-12-03T15:45:14.827Z,4.28
2022-12-03T15:46:28.171Z,3.83
2022-12-03T15:47:39.814Z,3.78
2022-12-03T15:48:51.558Z,4.18
2022-12-03T15:50:03.492Z,4.80
2022-12-03T15:51:15.127Z,4.55
2022-12-03T15:52:26.861Z,5.80
2022-12-03T15:53:38.821Z,6.97
2022-12-03T15:54:50.590Z,12.85
2022-12-03T15:56:02.216Z,17.25
2022-12-03T15:57:13.841Z,14.60
2022-12-03T15:58:25.442Z,12.52
2022-12-03T15:59:37.257Z,11.55
2022-12-03T16:00:49.019Z,10.57
2022-12-03T16:02:00.596Z,11.43
2022-12-03T16:03:12.326Z,10.55
2022-12-03T16:04:24.505Z,10.18
2022-12-03T16:05:36.285Z,10.48
2022-12-03T16:06:53.873Z,8.20
2022-12-03T16:08:05.508Z,7.40
2022-12-03T16:09:19.983Z,7.47
2022-12-03T16:10:34.008Z,9.25
2022-12-03T16:11:45.714Z,12.85